Toulon, IL

6:24 AM CDT on May 24, 2015 (GMT -0500)
Illinois Valley Regional-Duncan | | Change Station
CLOSE
Current Station
Airport
Location: Peru,
Elevation: 653 ft
Nearby Weather Stations

Elev 653 ft 41.35 °N, 89.15 °W | Updated 9 minutes ago

Overcast
Overcast
57 °F
Feels Like 57 °F
N
7
Wind Variable Wind from NE

Today
High -- | Low -- °F
--% Chance of Precip.
Yesterday
High -- | Low -- °F
Precip. -- in
5:34 AM 8:19 PM
Waxing Crescent, 38% visible
Pressure 30.16 in
Visibility 10.0 miles
Clouds Scattered Clouds 5000 ft
Scattered Clouds 7000 ft
Mostly Cloudy 11000 ft
Dew Point 57 °F
Humidity 99%
Rainfall 0.30 in
Snow Depth Not available.
UV 0 out of 12
Pollen 7.90 out of 12
Air Quality Not available.
Flu Activity Sporadic
METAR KVYS 241115Z AUTO 05006KT 10SM SCT050 SCT070 BKN110 14/14 A3016 RMK AO2 T01410140

More Conditions Fewer Conditions

Pressure 30.16 in
Visibility 10.0 miles
Clouds Scattered Clouds 5000 ft
Scattered Clouds 7000 ft
Mostly Cloudy 11000 ft
Dew Point 57 °F
Humidity 99%
Rainfall 0.30 in
Snow Depth Not available.
UV 0 out of 12
Pollen 7.90 out of 12
Air Quality Not available.
Flu Activity Sporadic
METAR KVYS 241115Z AUTO 05006KT 10SM SCT050 SCT070 BKN110 14/14 A3016 RMK AO2 T01410140

More Conditions Fewer Conditions

10-Day Weather Forecast

Almanac

Astronomy

May. 24, 2015 Rise Set
Actual Time
Civil Twilight
Nautical Twilight
Astronomical Twilight
Moon
Length of Visible Light
Length of Day
Tomorrow will be .
, % of the Moon is Illuminated

Today's Extremes

State Highs State Lows

Community

WunderPhotos

Upload Photos

1,823,715 photos uploaded!

WunderBlogs® & News

Nearby

Air Quality

  Air Quality AQ Index Pollutant
Not available.

Snow Depth

Station Depth Elevation

Earthquake Activity

City Distance Mag. Time & Date
Minimum magnitude displayed is 2.5.

Coastal Water Temperatures

Place Temperature

Stations

Nearby Weather Stations

Station Location Temp. Windchill Dew Point Humidity Wind Precip. Elev Updated Type